Aérodrome :
LOGIN :

S'inscrire | Disclaimer

   EN    FR    IT 

 










Légende :    VFR   VFR Marginal   IFR   IFR Intensif   IFR Très Intensif
Visi : 
Plafond : 
>= 8 km
>= 3000ft
5 à 8 km
1000 à 3000 ft
1500m à 5 km
500 à 1000 ft
800 à 1500m
200 à 500 ft
< 800m
< 200 ft
Symboles :   Orages  Brouillard  Fortes neiges  Fortes précipitations  Vent > 20 kt
SIGMETs :   Divers  Orages  Givrage  Turbulence  Onde Orograph.  Cendres Volcan.






- Altitude de l'aérodrome : 160 ft
- Code IATA : LRT


LFRH - Lorient Lann Bihoue

DERNIER METAR :
  • 061930Z AUTO 25010KT 9999 OVC042 11/10 Q1016 BECMG BKN008 BKN035

METARs EXPIRÉS :
  • 061900Z AUTO 26012KT 9999 BKN043 11/10 Q1016 BECMG BKN008 BKN035
  • 061830Z AUTO 26011KT 9999 FEW009 OVC040 11/10 Q1015 BECMG BKN008 BKN035
  • 061800Z AUTO 26010KT 9999 FEW014 BKN041 11/11 Q1015 BECMG BKN008 BKN035
  • 061730Z AUTO 27010KT 9999 BKN015 BKN021 BKN027 11/11 Q1015 BECMG BKN008 BKN035
  • 061700Z AUTO 27010KT 9999 FEW018 OVC034 11/11 Q1015 TEMPO 24017G27KT BECMG BKN008 OVC012

TAF TAF LFRH
Valide du 06 à 18h jusqu'au 07 à 18h UTC


061700Z 0618/0718 26010KT 9999 BKN016 OVC035
BECMG 0618/0620 BKN008 BKN035
TEMPO 0620/0623 BKN018
TEMPO 0700/0718 -RADZ BKN003



MET'MAP, la Météo Aéronautique d'un coup d'oeil ! - Copyright ORBIFLY Décembre 2007 - Disclaimer

ORBIFLY MET'MAP TEAM :

Programmation & Développement : Alexandra Zaïnal
Sur une idée originale de : Baudouin d'Aumeries
Assistance à la programmation : Marc-Olivier Méhu
Soutien technique & logistique : Manuel Goepfert

Contact : metmap@orbifly.com




SOURCES & CREDITS :

   NOAA